sensor_id;sensor_type;location;lat;lon;timestamp;pressure;altitude;pressure_sealevel;temperature;humidity
45113;BME280;30873;53.908;27.576;2023-02-26T00:01:45;994.8;;;3.4;72.2
45113;BME280;30873;53.908;27.576;2023-02-26T00:06:31;994.8;;;3.4;72.5
45113;BME280;30873;53.908;27.576;2023-02-26T00:12:03;994.8;;;3.4;72.4
45113;BME280;30873;53.908;27.576;2023-02-26T00:16:49;994.8;;;3.3;72.3
45113;BME280;30873;53.908;27.576;2023-02-26T00:21:12;994.8;;;3.3;72.4
45113;BME280;30873;53.908;27.576;2023-02-26T00:26:47;994.9;;;3.3;72.1
45113;BME280;30873;53.908;27.576;2023-02-26T00:31:17;994.9;;;3.2;72.1
45113;BME280;30873;53.908;27.576;2023-02-26T00:37:07;994.8;;;3.2;72.1
45113;BME280;30873;53.908;27.576;2023-02-26T00:41:37;994.8;;;3.3;72.1
45113;BME280;30873;53.908;27.576;2023-02-26T00:46:25;994.8;;;3.3;72.1
45113;BME280;30873;53.908;27.576;2023-02-26T00:51:47;994.8;;;3.3;71.7
45113;BME280;30873;53.908;27.576;2023-02-26T00:56:09;994.9;;;3.3;71.9
45113;BME280;30873;53.908;27.576;2023-02-26T01:02:01;994.9;;;3.4;71.9
45113;BME280;30873;53.908;27.576;2023-02-26T01:06:45;995;;;3.4;71.7
45113;BME280;30873;53.908;27.576;2023-02-26T01:11:53;995;;;3.5;71.7
45113;BME280;30873;53.908;27.576;2023-02-26T01:16:41;995.1;;;3.5;71.6
45113;BME280;30873;53.908;27.576;2023-02-26T01:21:32;995.2;;;3.4;71.6
45113;BME280;30873;53.908;27.576;2023-02-26T01:26:53;995.2;;;3.4;71.5
45113;BME280;30873;53.908;27.576;2023-02-26T01:31:31;995.3;;;3.4;71.5
45113;BME280;30873;53.908;27.576;2023-02-26T01:36:35;995.4;;;3.3;71.3
45113;BME280;30873;53.908;27.576;2023-02-26T01:41:45;995.4;;;3.3;71.2
45113;BME280;30873;53.908;27.576;2023-02-26T01:46:32;995.5;;;3.2;71.1
45113;BME280;30873;53.908;27.576;2023-02-26T01:52:01;995.5;;;3.2;71.3
45113;BME280;30873;53.908;27.576;2023-02-26T01:56:15;995.6;;;3.2;71.4
45113;BME280;30873;53.908;27.576;2023-02-26T02:01:09;995.7;;;3.3;71.6
45113;BME280;30873;53.908;27.576;2023-02-26T02:06:47;995.8;;;3.3;71.7
45113;BME280;30873;53.908;27.576;2023-02-26T02:11:09;995.9;;;3.4;71.7
45113;BME280;30873;53.908;27.576;2023-02-26T02:17:05;996.1;;;3.4;72
45113;BME280;30873;53.908;27.576;2023-02-26T02:21:48;996.2;;;3.4;72.8
45113;BME280;30873;53.908;27.576;2023-02-26T02:26:28;996.3;;;3.3;72.8
45113;BME280;30873;53.908;27.576;2023-02-26T02:31:48;996.3;;;3.3;72.6
45113;BME280;30873;53.908;27.576;2023-02-26T02:36:33;996.4;;;3.1;72.2
45113;BME280;30873;53.908;27.576;2023-02-26T02:42:03;996.5;;;3.1;71.9
45113;BME280;30873;53.908;27.576;2023-02-26T02:46:32;996.7;;;2.9;71.8
45113;BME280;30873;53.908;27.576;2023-02-26T02:51:10;996.8;;;2.9;71.2
45113;BME280;30873;53.908;27.576;2023-02-26T02:56:48;996.9;;;2.8;70.8
45113;BME280;30873;53.908;27.576;2023-02-26T03:01:16;997.1;;;2.8;70.6
45113;BME280;30873;53.908;27.576;2023-02-26T03:06:59;997.3;;;2.8;70.4
45113;BME280;30873;53.908;27.576;2023-02-26T03:11:15;997.4;;;2.6;70.3
45113;BME280;30873;53.908;27.576;2023-02-26T03:16:12;997.5;;;2.5;70.6
45113;BME280;30873;53.908;27.576;2023-02-26T03:21:46;997.6;;;2.5;70.7
45113;BME280;30873;53.908;27.576;2023-02-26T03:26:30;997.7;;;2.6;70.3
45113;BME280;30873;53.908;27.576;2023-02-26T03:31:51;997.8;;;2.5;70.1
45113;BME280;30873;53.908;27.576;2023-02-26T03:36:45;997.9;;;2.3;70
45113;BME280;30873;53.908;27.576;2023-02-26T03:41:10;998;;;2.2;70.1
45113;BME280;30873;53.908;27.576;2023-02-26T03:46:48;998.1;;;2.2;70
45113;BME280;30873;53.908;27.576;2023-02-26T03:51:31;998.1;;;2.2;69.9
45113;BME280;30873;53.908;27.576;2023-02-26T03:57:01;998.3;;;2.2;69.6
45113;BME280;30873;53.908;27.576;2023-02-26T04:01:30;998.4;;;2.2;69.4
45113;BME280;30873;53.908;27.576;2023-02-26T04:06:09;998.5;;;2.2;69
45113;BME280;30873;53.908;27.576;2023-02-26T04:11:45;998.7;;;2.1;68.9
45113;BME280;30873;53.908;27.576;2023-02-26T04:16:29;998.7;;;2.1;68.8
45113;BME280;30873;53.908;27.576;2023-02-26T04:22:03;998.8;;;2;68.3
45113;BME280;30873;53.908;27.576;2023-02-26T04:26:29;998.9;;;1.9;68.1
45113;BME280;30873;53.908;27.576;2023-02-26T04:31:09;999;;;1.9;67.8
45113;BME280;30873;53.908;27.576;2023-02-26T04:36:43;999.1;;;1.9;67.6
45113;BME280;30873;53.908;27.576;2023-02-26T04:41:31;999.2;;;1.8;67.4
45113;BME280;30873;53.908;27.576;2023-02-26T04:47:03;999.4;;;1.7;66.9
45113;BME280;30873;53.908;27.576;2023-02-26T04:51:17;999.5;;;1.6;66.7
45113;BME280;30873;53.908;27.576;2023-02-26T04:56:23;999.7;;;1.6;66.3
45113;BME280;30873;53.908;27.576;2023-02-26T05:01:41;999.8;;;1.4;66.1
45113;BME280;30873;53.908;27.576;2023-02-26T05:06:31;999.8;;;1.3;65.3
45113;BME280;30873;53.908;27.576;2023-02-26T05:12:03;1000;;;1.2;65
45113;BME280;30873;53.908;27.576;2023-02-26T05:16:17;1000.1;;;1.3;65.2
45113;BME280;30873;53.908;27.576;2023-02-26T05:21:09;1000.3;;;1.3;65.1
45113;BME280;30873;53.908;27.576;2023-02-26T05:26:45;1000.4;;;1.3;65.1
45113;BME280;30873;53.908;27.576;2023-02-26T05:31:09;1000.5;;;1.2;64.7
45113;BME280;30873;53.908;27.576;2023-02-26T05:36:53;1000.6;;;1.3;64.8
45113;BME280;30873;53.908;27.576;2023-02-26T05:41:31;1000.7;;;1.2;65.2
45113;BME280;30873;53.908;27.576;2023-02-26T05:46:37;1000.8;;;1.3;65.5
45113;BME280;30873;53.908;27.576;2023-02-26T05:51:45;1000.9;;;1.3;65.4
45113;BME280;30873;53.908;27.576;2023-02-26T05:56:29;1001;;;1.3;65.7
45113;BME280;30873;53.908;27.576;2023-02-26T06:02:03;1001.1;;;1.3;65.9
45113;BME280;30873;53.908;27.576;2023-02-26T06:06:21;1001.2;;;1.3;65.6
45113;BME280;30873;53.908;27.576;2023-02-26T06:11:09;1001.3;;;1.3;65.5
45113;BME280;30873;53.908;27.576;2023-02-26T06:16:47;1001.3;;;1.4;65.3
45113;BME280;30873;53.908;27.576;2023-02-26T06:21:31;1001.5;;;1.5;65
45113;BME280;30873;53.908;27.576;2023-02-26T06:26:51;1001.7;;;1.4;64.6
45113;BME280;30873;53.908;27.576;2023-02-26T06:31:09;1001.7;;;1.6;64.7
45113;BME280;30873;53.908;27.576;2023-02-26T06:36:23;1001.9;;;1.6;64.3
45113;BME280;30873;53.908;27.576;2023-02-26T06:41:47;1002;;;1.6;64.4
45113;BME280;30873;53.908;27.576;2023-02-26T06:46:09;1002.1;;;1.6;64.5
45113;BME280;30873;53.908;27.576;2023-02-26T06:52:03;1002.2;;;1.6;64.5
45113;BME280;30873;53.908;27.576;2023-02-26T06:56:45;1002.3;;;1.6;64.2
45113;BME280;30873;53.908;27.576;2023-02-26T07:01:35;1002.4;;;1.6;63.8
45113;BME280;30873;53.908;27.576;2023-02-26T07:06:45;1002.5;;;1.7;63.7
45113;BME280;30873;53.908;27.576;2023-02-26T07:11:29;1002.7;;;1.7;62.8
45113;BME280;30873;53.908;27.576;2023-02-26T07:16:53;1002.7;;;1.6;62.5
45113;BME280;30873;53.908;27.576;2023-02-26T07:21:31;1002.8;;;1.7;62.5
45113;BME280;30873;53.908;27.576;2023-02-26T07:26:09;1002.9;;;1.9;62.3
45113;BME280;30873;53.908;27.576;2023-02-26T07:31:39;1003;;;1.9;62.1
45113;BME280;30873;53.908;27.576;2023-02-26T07:36:15;1003.1;;;2.2;62.3
45113;BME280;30873;53.908;27.576;2023-02-26T07:42:03;1003.2;;;2.4;61.5
45113;BME280;30873;53.908;27.576;2023-02-26T07:46:29;1003.2;;;2.5;61.2
45113;BME280;30873;53.908;27.576;2023-02-26T07:51:53;1003.3;;;2.5;60.5
45113;BME280;30873;53.908;27.576;2023-02-26T07:56:33;1003.5;;;2.5;60.1
45113;BME280;30873;53.908;27.576;2023-02-26T08:01:45;1003.6;;;2.6;59.5
45113;BME280;30873;53.908;27.576;2023-02-26T08:07:01;1003.7;;;2.6;59.5
45113;BME280;30873;53.908;27.576;2023-02-26T08:11:21;1003.7;;;2.6;59.2
45113;BME280;30873;53.908;27.576;2023-02-26T08:16:09;1003.8;;;2.6;58.8
45113;BME280;30873;53.908;27.576;2023-02-26T08:21:47;1004;;;2.4;58.8
45113;BME280;30873;53.908;27.576;2023-02-26T08:26:33;1004.2;;;2.4;58.9
45113;BME280;30873;53.908;27.576;2023-02-26T08:32:03;1004.3;;;2.6;59.2
45113;BME280;30873;53.908;27.576;2023-02-26T08:36:09;1004.4;;;2.4;58.6
45113;BME280;30873;53.908;27.576;2023-02-26T08:41:09;1004.5;;;2.6;58.6
45113;BME280;30873;53.908;27.576;2023-02-26T08:46:47;1004.6;;;2.6;58.6
45113;BME280;30873;53.908;27.576;2023-02-26T08:51:47;1004.6;;;2.4;58.6
45113;BME280;30873;53.908;27.576;2023-02-26T08:57:03;1004.6;;;2.3;58
45113;BME280;30873;53.908;27.576;2023-02-26T09:01:09;1004.7;;;2.4;58.1
45113;BME280;30873;53.908;27.576;2023-02-26T09:06:19;1004.9;;;2.4;58.4
45113;BME280;30873;53.908;27.576;2023-02-26T09:12:01;1005;;;2.3;57.9
45113;BME280;30873;53.908;27.576;2023-02-26T09:16:45;1005.2;;;2.2;57.6
45113;BME280;30873;53.908;27.576;2023-02-26T09:21:59;1005.4;;;2.3;57.9
45113;BME280;30873;53.908;27.576;2023-02-26T09:26:41;1005.5;;;2.2;58
45113;BME280;30873;53.908;27.576;2023-02-26T09:31:21;1005.5;;;2.3;57.7
45113;BME280;30873;53.908;27.576;2023-02-26T09:36:11;1005.6;;;2.3;57.3
45113;BME280;30873;53.908;27.576;2023-02-26T09:42:05;1005.8;;;2;57.9
45113;BME280;30873;53.908;27.576;2023-02-26T09:47:03;1005.9;;;1.9;58.3
45113;BME280;30873;53.908;27.576;2023-02-26T09:51:09;1005.9;;;1.9;59
45113;BME280;30873;53.908;27.576;2023-02-26T09:56:10;1006.1;;;1.7;60.1
45113;BME280;30873;53.908;27.576;2023-02-26T10:02:03;1006.1;;;1.7;60.9
45113;BME280;30873;53.908;27.576;2023-02-26T10:06:14;1006.2;;;1.7;60.8
45113;BME280;30873;53.908;27.576;2023-02-26T10:11:52;1006.3;;;1.6;61.1
45113;BME280;30873;53.908;27.576;2023-02-26T10:16:31;1006.4;;;1.5;61.4
45113;BME280;30873;53.908;27.576;2023-02-26T10:21:22;1006.5;;;1.6;61.7
45113;BME280;30873;53.908;27.576;2023-02-26T10:26:59;1006.5;;;1.6;61.4
45113;BME280;30873;53.908;27.576;2023-02-26T10:31:23;1006.6;;;1.7;61.3
45113;BME280;30873;53.908;27.576;2023-02-26T10:37:03;1006.6;;;1.6;61.2
45113;BME280;30873;53.908;27.576;2023-02-26T10:41:09;1006.7;;;1.5;61.3
45113;BME280;30873;53.908;27.576;2023-02-26T10:46:14;1006.8;;;1.5;61.9
45113;BME280;30873;53.908;27.576;2023-02-26T10:52:04;1006.8;;;1.6;62.2
45113;BME280;30873;53.908;27.576;2023-02-26T10:56:47;1006.9;;;1.8;61.9
45113;BME280;30873;53.908;27.576;2023-02-26T11:01:53;1007.1;;;1.7;61.8
45113;BME280;30873;53.908;27.576;2023-02-26T11:06:32;1007.2;;;1.6;62.2
45113;BME280;30873;53.908;27.576;2023-02-26T11:11:39;1007.2;;;1.5;62.6
45113;BME280;30873;53.908;27.576;2023-02-26T11:17:02;1007.2;;;1.5;62.9
45113;BME280;30873;53.908;27.576;2023-02-26T11:21:37;1007.3;;;1.6;62.9
45113;BME280;30873;53.908;27.576;2023-02-26T11:26:56;1007.3;;;1.8;62.7
45113;BME280;30873;53.908;27.576;2023-02-26T11:31:22;1007.4;;;1.7;62.8
45113;BME280;30873;53.908;27.576;2023-02-26T11:36:10;1007.5;;;1.6;62.9
45113;BME280;30873;53.908;27.576;2023-02-26T11:42:01;1007.5;;;1.5;63.2
45113;BME280;30873;53.908;27.576;2023-02-26T11:46:09;1007.6;;;1.5;63.6
45113;BME280;30873;53.908;27.576;2023-02-26T11:52:26;1007.6;;;1.6;63.5
45113;BME280;30873;53.908;27.576;2023-02-26T11:56:30;1007.7;;;1.5;63.7
45113;BME280;30873;53.908;27.576;2023-02-26T12:01:22;1007.8;;;1.5;63.7
45113;BME280;30873;53.908;27.576;2023-02-26T12:07:01;1007.9;;;1.3;63.4
45113;BME280;30873;53.908;27.576;2023-02-26T12:11:34;1008;;;1.2;63.7
45113;BME280;30873;53.908;27.576;2023-02-26T12:16:56;1008;;;1.3;63.6
45113;BME280;30873;53.908;27.576;2023-02-26T12:21:46;1008.1;;;1.1;63.6
45113;BME280;30873;53.908;27.576;2023-02-26T12:26:44;1008.2;;;1.3;63.9
45113;BME280;30873;53.908;27.576;2023-02-26T12:32:07;1008.3;;;1.4;63.2
45113;BME280;30873;53.908;27.576;2023-02-26T12:36:12;1008.4;;;1.2;63.1
45113;BME280;30873;53.908;27.576;2023-02-26T12:41:56;1008.5;;;1.2;63.3
45113;BME280;30873;53.908;27.576;2023-02-26T12:46:33;1008.6;;;1.2;63
45113;BME280;30873;53.908;27.576;2023-02-26T12:51:24;1008.7;;;1.1;63.1
45113;BME280;30873;53.908;27.576;2023-02-26T12:57:11;1008.8;;;1;63
45113;BME280;30873;53.908;27.576;2023-02-26T13:01:21;1008.7;;;1;63.4
45113;BME280;30873;53.908;27.576;2023-02-26T13:06:42;1008.8;;;1.1;63.7
45113;BME280;30873;53.908;27.576;2023-02-26T13:11:39;1008.9;;;1.2;63.5
45113;BME280;30873;53.908;27.576;2023-02-26T13:16:26;1009;;;1.1;63.5
45113;BME280;30873;53.908;27.576;2023-02-26T13:22:02;1009.1;;;1;63.7
45113;BME280;30873;53.908;27.576;2023-02-26T13:26:21;1009.1;;;0.8;64
45113;BME280;30873;53.908;27.576;2023-02-26T13:31:54;1009.1;;;0.8;64.4
45113;BME280;30873;53.908;27.576;2023-02-26T13:36:31;1009.2;;;0.7;64.5
45113;BME280;30873;53.908;27.576;2023-02-26T13:41:46;1009.3;;;0.7;64.8
45113;BME280;30873;53.908;27.576;2023-02-26T13:47:08;1009.3;;;0.8;64.8
45113;BME280;30873;53.908;27.576;2023-02-26T13:51:10;1009.4;;;0.6;64.9
45113;BME280;30873;53.908;27.576;2023-02-26T13:57:05;1009.6;;;0.6;64.7
45113;BME280;30873;53.908;27.576;2023-02-26T14:01:47;1009.7;;;0.6;64.6
45113;BME280;30873;53.908;27.576;2023-02-26T14:07:05;1009.8;;;0.5;64.6
45113;BME280;30873;53.908;27.576;2023-02-26T14:11:41;1009.8;;;0.5;64.7
45113;BME280;30873;53.908;27.576;2023-02-26T14:16:25;1009.9;;;0.5;64.4
45113;BME280;30873;53.908;27.576;2023-02-26T14:22:01;1010;;;0.5;64.4
45113;BME280;30873;53.908;27.576;2023-02-26T14:26:46;1010.1;;;0.6;64.1
45113;BME280;30873;53.908;27.576;2023-02-26T14:32:03;1010.2;;;0.5;64
45113;BME280;30873;53.908;27.576;2023-02-26T14:36:24;1010.3;;;0.5;64.3
45113;BME280;30873;53.908;27.576;2023-02-26T14:41:37;1010.3;;;0.6;64.5
45113;BME280;30873;53.908;27.576;2023-02-26T14:46:45;1010.4;;;0.6;64.3
45113;BME280;30873;53.908;27.576;2023-02-26T14:51:47;1010.4;;;0.5;64.4
45113;BME280;30873;53.908;27.576;2023-02-26T14:57:02;1010.4;;;0.6;64.8
45113;BME280;30873;53.908;27.576;2023-02-26T15:01:27;1010.5;;;0.7;64.6
45113;BME280;30873;53.908;27.576;2023-02-26T15:06:26;1010.6;;;0.5;64.6
45113;BME280;30873;53.908;27.576;2023-02-26T15:12:03;1010.7;;;0.4;64.3
45113;BME280;30873;53.908;27.576;2023-02-26T15:16:48;1010.8;;;0.3;63.7
45113;BME280;30873;53.908;27.576;2023-02-26T15:22:06;1011;;;0.2;63.4
45113;BME280;30873;53.908;27.576;2023-02-26T15:27:00;1011.1;;;0.2;63.5
45113;BME280;30873;53.908;27.576;2023-02-26T15:31:27;1011.1;;;0.2;63.3
45113;BME280;30873;53.908;27.576;2023-02-26T15:37:01;1011.2;;;0.1;63.4
45113;BME280;30873;53.908;27.576;2023-02-26T15:41:45;1011.4;;;0.1;63.3
45113;BME280;30873;53.908;27.576;2023-02-26T15:47:01;1011.5;;;0.1;63.1
45113;BME280;30873;53.908;27.576;2023-02-26T15:51:09;1011.6;;;0.1;63
45113;BME280;30873;53.908;27.576;2023-02-26T15:56:38;1011.7;;;-0.1;62.8
45113;BME280;30873;53.908;27.576;2023-02-26T16:01:53;1011.9;;;-0.1;63
45113;BME280;30873;53.908;27.576;2023-02-26T16:06:44;1012.1;;;-0.2;63
45113;BME280;30873;53.908;27.576;2023-02-26T16:12:00;1012.2;;;-0.2;63
45113;BME280;30873;53.908;27.576;2023-02-26T16:16:38;1012.3;;;-0.1;62.7
45113;BME280;30873;53.908;27.576;2023-02-26T16:21:11;1012.4;;;0;62.2
45113;BME280;30873;53.908;27.576;2023-02-26T16:27:02;1012.5;;;-0.1;61.7
45113;BME280;30873;53.908;27.576;2023-02-26T16:31:31;1012.6;;;0;61.4
45113;BME280;30873;53.908;27.576;2023-02-26T16:36:47;1012.7;;;0;61.2
45113;BME280;30873;53.908;27.576;2023-02-26T16:41:37;1012.8;;;0;61.5
45113;BME280;30873;53.908;27.576;2023-02-26T16:46:09;1012.9;;;0.1;61.5
45113;BME280;30873;53.908;27.576;2023-02-26T16:52:01;1012.9;;;0.2;61.5
45113;BME280;30873;53.908;27.576;2023-02-26T16:56:45;1013;;;0.1;61.4
45113;BME280;30873;53.908;27.576;2023-02-26T17:01:59;1013.2;;;0.1;61.5
45113;BME280;30873;53.908;27.576;2023-02-26T17:06:43;1013.3;;;0;61.7
45113;BME280;30873;53.908;27.576;2023-02-26T17:11:16;1013.4;;;0.1;61.7
45113;BME280;30873;53.908;27.576;2023-02-26T17:17:01;1013.5;;;0;61.7
45113;BME280;30873;53.908;27.576;2023-02-26T17:21:44;1013.6;;;0;61.7
45113;BME280;30873;53.908;27.576;2023-02-26T17:27:01;1013.6;;;0.1;61.5
45113;BME280;30873;53.908;27.576;2023-02-26T17:31:43;1013.8;;;-0.1;61.2
45113;BME280;30873;53.908;27.576;2023-02-26T17:36:11;1013.8;;;-0.2;61.3
45113;BME280;30873;53.908;27.576;2023-02-26T17:41:59;1013.9;;;-0.3;61.4
45113;BME280;30873;53.908;27.576;2023-02-26T17:46:37;1014;;;-0.4;61.6
45113;BME280;30873;53.908;27.576;2023-02-26T17:51:57;1014.2;;;-0.4;61.6
45113;BME280;30873;53.908;27.576;2023-02-26T17:56:37;1014.3;;;-0.4;61.8
45113;BME280;30873;53.908;27.576;2023-02-26T18:01:23;1014.3;;;-0.3;61.5
45113;BME280;30873;53.908;27.576;2023-02-26T18:06:37;1014.4;;;-0.2;61.4
45113;BME280;30873;53.908;27.576;2023-02-26T18:11:43;1014.5;;;-0.2;61.3
45113;BME280;30873;53.908;27.576;2023-02-26T18:16:59;1014.5;;;-0.5;60.8
45113;BME280;30873;53.908;27.576;2023-02-26T18:21:35;1014.6;;;-0.6;60.5
45113;BME280;30873;53.908;27.576;2023-02-26T18:26:51;1014.7;;;-0.7;60.8
45113;BME280;30873;53.908;27.576;2023-02-26T18:31:38;1014.8;;;-0.8;60.9
45113;BME280;30873;53.908;27.576;2023-02-26T18:36:59;1014.8;;;-0.8;61
45113;BME280;30873;53.908;27.576;2023-02-26T18:41:59;1015;;;-0.9;60.7
45113;BME280;30873;53.908;27.576;2023-02-26T18:46:37;1015.1;;;-0.9;60.7
45113;BME280;30873;53.908;27.576;2023-02-26T18:51:09;1015.1;;;-0.8;60.4
45113;BME280;30873;53.908;27.576;2023-02-26T18:56:23;1015.1;;;-0.8;60
45113;BME280;30873;53.908;27.576;2023-02-26T19:01:43;1015.2;;;-0.9;60.1
45113;BME280;30873;53.908;27.576;2023-02-26T19:06:59;1015.3;;;-0.8;60
45113;BME280;30873;53.908;27.576;2023-02-26T19:11:37;1015.4;;;-0.9;59.8
45113;BME280;30873;53.908;27.576;2023-02-26T19:16:23;1015.5;;;-0.8;60.2
45113;BME280;30873;53.908;27.576;2023-02-26T19:21:37;1015.6;;;-0.8;59.8
45113;BME280;30873;53.908;27.576;2023-02-26T19:26:45;1015.6;;;-0.7;59.7
45113;BME280;30873;53.908;27.576;2023-02-26T19:31:59;1015.6;;;-0.8;59.4
45113;BME280;30873;53.908;27.576;2023-02-26T19:36:09;1015.6;;;-0.8;59.5
45113;BME280;30873;53.908;27.576;2023-02-26T19:41:49;1015.7;;;-0.9;59.2
45113;BME280;30873;53.908;27.576;2023-02-26T19:46:35;1015.8;;;-0.9;59.4
45113;BME280;30873;53.908;27.576;2023-02-26T19:51:43;1015.8;;;-0.9;59.7
45113;BME280;30873;53.908;27.576;2023-02-26T19:57:01;1015.9;;;-1;59.6
45113;BME280;30873;53.908;27.576;2023-02-26T20:01:37;1016;;;-1.2;59.5
45113;BME280;30873;53.908;27.576;2023-02-26T20:06:37;1016.1;;;-1.3;59.2
45113;BME280;30873;53.908;27.576;2023-02-26T20:11:37;1016.2;;;-1.4;59.2
45113;BME280;30873;53.908;27.576;2023-02-26T20:16:43;1016.2;;;-1.4;58.6
45113;BME280;30873;53.908;27.576;2023-02-26T20:21:59;1016.3;;;-1.4;58.5
45113;BME280;30873;53.908;27.576;2023-02-26T20:26:21;1016.4;;;-1.4;58
45113;BME280;30873;53.908;27.576;2023-02-26T20:31:37;1016.5;;;-1.5;57.9
45113;BME280;30873;53.908;27.576;2023-02-26T20:36:37;1016.5;;;-1.5;57.8
45113;BME280;30873;53.908;27.576;2023-02-26T20:41:43;1016.5;;;-1.4;57.7
45113;BME280;30873;53.908;27.576;2023-02-26T20:47:01;1016.5;;;-1.3;57.7
45113;BME280;30873;53.908;27.576;2023-02-26T20:51:45;1016.6;;;-1.2;57.5
45113;BME280;30873;53.908;27.576;2023-02-26T20:56:23;1016.8;;;-1.2;57.2
45113;BME280;30873;53.908;27.576;2023-02-26T21:01:35;1016.9;;;-1.2;57.3
45113;BME280;30873;53.908;27.576;2023-02-26T21:06:43;1016.9;;;-1.1;57.4
45113;BME280;30873;53.908;27.576;2023-02-26T21:11:59;1016.9;;;-1.1;57.5
45113;BME280;30873;53.908;27.576;2023-02-26T21:16:43;1017;;;-1;57.5
45113;BME280;30873;53.908;27.576;2023-02-26T21:21:09;1017.1;;;-1;57.2
45113;BME280;30873;53.908;27.576;2023-02-26T21:26:23;1017.2;;;-1.3;57.2
45113;BME280;30873;53.908;27.576;2023-02-26T21:32:01;1017.3;;;-1.2;57.5
45113;BME280;30873;53.908;27.576;2023-02-26T21:36:59;1017.3;;;-1.2;57.3
45113;BME280;30873;53.908;27.576;2023-02-26T21:41:09;1017.4;;;-1.2;57.6
45113;BME280;30873;53.908;27.576;2023-02-26T21:46:21;1017.4;;;-1.1;57.8
45113;BME280;30873;53.908;27.576;2023-02-26T21:51:09;1017.4;;;-1;57.6
45113;BME280;30873;53.908;27.576;2023-02-26T21:56:47;1017.5;;;-0.9;57.7
45113;BME280;30873;53.908;27.576;2023-02-26T22:02:03;1017.5;;;-0.8;57.5
45113;BME280;30873;53.908;27.576;2023-02-26T22:06:23;1017.6;;;-0.8;57.1
45113;BME280;30873;53.908;27.576;2023-02-26T22:11:23;1017.7;;;-0.9;57.2
45113;BME280;30873;53.908;27.576;2023-02-26T22:16:09;1017.8;;;-0.8;57.4
45113;BME280;30873;53.908;27.576;2023-02-26T22:21:49;1017.9;;;-0.8;57.4
45113;BME280;30873;53.908;27.576;2023-02-26T22:27:03;1018;;;-0.8;57
45113;BME280;30873;53.908;27.576;2023-02-26T22:31:35;1018;;;-0.9;57.2
45113;BME280;30873;53.908;27.576;2023-02-26T22:36:21;1018;;;-0.8;57
45113;BME280;30873;53.908;27.576;2023-02-26T22:41:09;1018;;;-0.8;56.8
45113;BME280;30873;53.908;27.576;2023-02-26T22:46:49;1018.1;;;-0.9;56.8
45113;BME280;30873;53.908;27.576;2023-02-26T22:52:03;1018.1;;;-0.9;56.9
45113;BME280;30873;53.908;27.576;2023-02-26T22:56:23;1018.3;;;-0.9;56.2
45113;BME280;30873;53.908;27.576;2023-02-26T23:01:21;1018.3;;;-0.9;56.6
45113;BME280;30873;53.908;27.576;2023-02-26T23:06:21;1018.3;;;-1;57.1
45113;BME280;30873;53.908;27.576;2023-02-26T23:11:35;1018.4;;;-1.1;57.3
45113;BME280;30873;53.908;27.576;2023-02-26T23:17:05;1018.5;;;-1.1;57.4
45113;BME280;30873;53.908;27.576;2023-02-26T23:21:37;1018.5;;;-1.1;56.9
45113;BME280;30873;53.908;27.576;2023-02-26T23:26:09;1018.6;;;-1.1;56.7
45113;BME280;30873;53.908;27.576;2023-02-26T23:31:35;1018.6;;;-1;56.8
45113;BME280;30873;53.908;27.576;2023-02-26T23:36:47;1018.7;;;-1;57
45113;BME280;30873;53.908;27.576;2023-02-26T23:42:03;1018.8;;;-0.9;57.1
45113;BME280;30873;53.908;27.576;2023-02-26T23:46:37;1018.9;;;-0.9;57
45113;BME280;30873;53.908;27.576;2023-02-26T23:51:21;1019;;;-0.9;57.1
45113;BME280;30873;53.908;27.576;2023-02-26T23:56:35;1019;;;-0.8;56.6
